sensor_id;sensor_type;location;lat;lon;timestamp;pressure;altitude;pressure_sealevel;temperature;humidity
33404;BME280;19751;40.274;18.268;2022-07-29T00:02:11;100819.44;;;26.92;86.24
33404;BME280;19751;40.274;18.268;2022-07-29T00:04:36;100808.75;;;26.86;86.43
33404;BME280;19751;40.274;18.268;2022-07-29T00:07:03;100806.06;;;26.81;86.87
33404;BME280;19751;40.274;18.268;2022-07-29T00:09:30;100812.41;;;26.81;86.95
33404;BME280;19751;40.274;18.268;2022-07-29T00:11:58;100804.94;;;26.82;86.89
33404;BME280;19751;40.274;18.268;2022-07-29T00:14:25;100806.88;;;26.81;87.14
33404;BME280;19751;40.274;18.268;2022-07-29T00:16:51;100810.84;;;26.75;87.17
33404;BME280;19751;40.274;18.268;2022-07-29T00:19:16;100803.41;;;26.70;87.84
33404;BME280;19751;40.274;18.268;2022-07-29T00:21:42;100796.56;;;26.68;87.75
33404;BME280;19751;40.274;18.268;2022-07-29T00:24:07;100798.50;;;26.67;88.22
33404;BME280;19751;40.274;18.268;2022-07-29T00:26:33;100805.19;;;26.61;88.48
33404;BME280;19751;40.274;18.268;2022-07-29T00:29:00;100801.91;;;26.59;88.65
33404;BME280;19751;40.274;18.268;2022-07-29T00:31:26;100802.78;;;26.55;88.81
33404;BME280;19751;40.274;18.268;2022-07-29T00:33:52;100803.63;;;26.55;89.16
33404;BME280;19751;40.274;18.268;2022-07-29T00:36:17;100799.50;;;26.52;89.34
33404;BME280;19751;40.274;18.268;2022-07-29T00:38:43;100802.25;;;26.52;89.50
33404;BME280;19751;40.274;18.268;2022-07-29T00:41:11;100794.78;;;26.53;89.65
33404;BME280;19751;40.274;18.268;2022-07-29T00:43:37;100800.03;;;26.55;89.60
33404;BME280;19751;40.274;18.268;2022-07-29T00:46:02;100794.28;;;26.51;89.64
33404;BME280;19751;40.274;18.268;2022-07-29T00:48:28;100799.25;;;26.49;89.81
33404;BME280;19751;40.274;18.268;2022-07-29T00:50:55;100799.00;;;26.45;89.94
33404;BME280;19751;40.274;18.268;2022-07-29T00:53:21;100800.97;;;26.45;90.03
33404;BME280;19751;40.274;18.268;2022-07-29T00:55:47;100798.75;;;26.47;90.38
33404;BME280;19751;40.274;18.268;2022-07-29T00:58:12;100806.75;;;26.43;90.40
33404;BME280;19751;40.274;18.268;2022-07-29T01:00:39;100797.38;;;26.44;90.62
33404;BME280;19751;40.274;18.268;2022-07-29T01:03:06;100804.25;;;26.47;90.58
33404;BME280;19751;40.274;18.268;2022-07-29T01:05:33;100802.84;;;26.49;90.53
33404;BME280;19751;40.274;18.268;2022-07-29T01:07:59;100805.59;;;26.49;90.47
33404;BME280;19751;40.274;18.268;2022-07-29T01:10:25;100803.66;;;26.50;90.45
33404;BME280;19751;40.274;18.268;2022-07-29T01:12:53;100801.50;;;26.47;90.14
33404;BME280;19751;40.274;18.268;2022-07-29T01:15:21;100810.06;;;26.45;90.38
33404;BME280;19751;40.274;18.268;2022-07-29T01:18:51;100810.06;;;26.45;90.75
33404;BME280;19751;40.274;18.268;2022-07-29T01:20:55;100808.44;;;26.44;90.47
33404;BME280;19751;40.274;18.268;2022-07-29T01:31:16;100810.09;;;26.40;90.52
33404;BME280;19751;40.274;18.268;2022-07-29T01:33:46;100801.31;;;26.38;90.89
33404;BME280;19751;40.274;18.268;2022-07-29T01:36:23;100809.28;;;26.40;90.96
33404;BME280;19751;40.274;18.268;2022-07-29T01:39:18;100804.56;;;26.40;90.78
33404;BME280;19751;40.274;18.268;2022-07-29T01:41:57;100810.91;;;26.41;91.08
33404;BME280;19751;40.274;18.268;2022-07-29T01:47:20;100803.75;;;26.40;91.44
33404;BME280;19751;40.274;18.268;2022-07-29T01:49:49;100806.50;;;26.40;91.44
33404;BME280;19751;40.274;18.268;2022-07-29T01:52:23;100806.50;;;26.40;91.21
33404;BME280;19751;40.274;18.268;2022-07-29T01:54:54;100801.53;;;26.42;91.59
33404;BME280;19751;40.274;18.268;2022-07-29T01:57:27;100799.06;;;26.40;91.49
33404;BME280;19751;40.274;18.268;2022-07-29T01:59:55;100804.56;;;26.40;91.61
33404;BME280;19751;40.274;18.268;2022-07-29T02:02:23;100793.84;;;26.39;91.93
33404;BME280;19751;40.274;18.268;2022-07-29T02:04:50;100794.97;;;26.38;92.13
33404;BME280;19751;40.274;18.268;2022-07-29T02:07:19;100803.25;;;26.38;92.34
33404;BME280;19751;40.274;18.268;2022-07-29T02:09:46;100800.19;;;26.39;92.67
33404;BME280;19751;40.274;18.268;2022-07-29T02:12:14;100801.56;;;26.37;92.94
33404;BME280;19751;40.274;18.268;2022-07-29T02:14:46;100798.56;;;26.33;93.49
33404;BME280;19751;40.274;18.268;2022-07-29T02:17:13;100803.00;;;26.34;93.42
33404;BME280;19751;40.274;18.268;2022-07-29T02:19:43;100801.63;;;26.32;93.99
33404;BME280;19751;40.274;18.268;2022-07-29T02:22:10;100799.41;;;26.34;94.28
33404;BME280;19751;40.274;18.268;2022-07-29T02:24:38;100798.00;;;26.36;94.52
33404;BME280;19751;40.274;18.268;2022-07-29T02:27:07;100795.22;;;26.36;94.31
33404;BME280;19751;40.274;18.268;2022-07-29T02:29:34;100795.00;;;26.33;95.14
33404;BME280;19751;40.274;18.268;2022-07-29T02:32:02;100783.94;;;26.33;95.47
33404;BME280;19751;40.274;18.268;2022-07-29T02:34:29;100791.66;;;26.36;95.31
33404;BME280;19751;40.274;18.268;2022-07-29T02:36:55;100787.00;;;26.31;95.84
33404;BME280;19751;40.274;18.268;2022-07-29T02:39:21;100780.66;;;26.31;96.06
33404;BME280;19751;40.274;18.268;2022-07-29T02:41:50;100780.44;;;26.27;96.44
33404;BME280;19751;40.274;18.268;2022-07-29T02:44:20;100785.13;;;26.26;96.93
33404;BME280;19751;40.274;18.268;2022-07-29T02:47:27;100779.63;;;26.26;96.78
33404;BME280;19751;40.274;18.268;2022-07-29T02:52:54;100783.50;;;26.25;97.41
33404;BME280;19751;40.274;18.268;2022-07-29T02:55:43;100781.84;;;26.24;97.50
33404;BME280;19751;40.274;18.268;2022-07-29T02:58:19;100784.91;;;26.23;97.66
33404;BME280;19751;40.274;18.268;2022-07-29T03:00:48;100785.19;;;26.21;96.72
33404;BME280;19751;40.274;18.268;2022-07-29T03:03:18;100782.44;;;26.21;95.75
33404;BME280;19751;40.274;18.268;2022-07-29T03:05:44;100783.25;;;26.22;95.84
33404;BME280;19751;40.274;18.268;2022-07-29T03:08:11;100786.28;;;26.20;95.90
33404;BME280;19751;40.274;18.268;2022-07-29T03:10:40;100780.50;;;26.22;96.01
33404;BME280;19751;40.274;18.268;2022-07-29T03:13:09;100776.84;;;26.26;95.85
33404;BME280;19751;40.274;18.268;2022-07-29T03:15:36;100779.88;;;26.25;95.13
33404;BME280;19751;40.274;18.268;2022-07-29T03:18:02;100782.94;;;26.23;95.17
33404;BME280;19751;40.274;18.268;2022-07-29T03:20:29;100773.03;;;26.22;95.16
33404;BME280;19751;40.274;18.268;2022-07-29T03:22:54;100778.00;;;26.20;95.82
33404;BME280;19751;40.274;18.268;2022-07-29T03:25:20;100777.19;;;26.20;95.82
33404;BME280;19751;40.274;18.268;2022-07-29T03:27:47;100778.31;;;26.19;96.12
33404;BME280;19751;40.274;18.268;2022-07-29T03:30:13;100781.66;;;26.16;95.16
33404;BME280;19751;40.274;18.268;2022-07-29T03:32:39;100780.34;;;26.08;94.23
33404;BME280;19751;40.274;18.268;2022-07-29T03:35:05;100780.13;;;26.05;93.07
33404;BME280;19751;40.274;18.268;2022-07-29T03:37:31;100786.47;;;26.05;92.58
33404;BME280;19751;40.274;18.268;2022-07-29T03:40:00;100782.03;;;26.04;92.79
33404;BME280;19751;40.274;18.268;2022-07-29T03:42:31;100782.03;;;26.04;93.15
33404;BME280;19751;40.274;18.268;2022-07-29T03:45:01;100779.28;;;26.04;93.74
33404;BME280;19751;40.274;18.268;2022-07-29T03:47:29;100783.41;;;26.07;94.62
33404;BME280;19751;40.274;18.268;2022-07-29T03:49:59;100788.13;;;26.06;95.17
33404;BME280;19751;40.274;18.268;2022-07-29T03:52:26;100790.88;;;26.06;95.12
33404;BME280;19751;40.274;18.268;2022-07-29T03:54:52;100789.81;;;26.02;94.53
33404;BME280;19751;40.274;18.268;2022-07-29T03:57:20;100790.38;;;25.99;93.83
33404;BME280;19751;40.274;18.268;2022-07-29T03:59:48;100786.28;;;25.96;94.83
33404;BME280;19751;40.274;18.268;2022-07-29T04:02:14;100784.34;;;25.97;96.02
33404;BME280;19751;40.274;18.268;2022-07-29T04:04:41;100795.97;;;25.94;96.37
33404;BME280;19751;40.274;18.268;2022-07-29T04:07:06;100794.59;;;25.91;97.32
33404;BME280;19751;40.274;18.268;2022-07-29T04:09:32;100795.97;;;25.94;97.27
33404;BME280;19751;40.274;18.268;2022-07-29T04:11:57;100801.47;;;25.94;97.53
33404;BME280;19751;40.274;18.268;2022-07-29T04:14:23;100804.19;;;25.99;97.58
33404;BME280;19751;40.274;18.268;2022-07-29T04:16:49;100805.78;;;26.05;97.65
33404;BME280;19751;40.274;18.268;2022-07-29T04:19:14;100803.03;;;26.05;97.54
33404;BME280;19751;40.274;18.268;2022-07-29T04:21:40;100798.34;;;26.06;97.79
33404;BME280;19751;40.274;18.268;2022-07-29T04:24:07;100801.91;;;26.06;97.59
33404;BME280;19751;40.274;18.268;2022-07-29T04:26:33;100799.16;;;26.06;97.76
33404;BME280;19751;40.274;18.268;2022-07-29T04:28:59;100806.03;;;26.09;97.82
33404;BME280;19751;40.274;18.268;2022-07-29T04:31:24;100803.78;;;26.11;97.17
33404;BME280;19751;40.274;18.268;2022-07-29T04:33:50;100802.72;;;26.07;97.36
33404;BME280;19751;40.274;18.268;2022-07-29T04:36:16;100799.66;;;26.08;96.89
33404;BME280;19751;40.274;18.268;2022-07-29T04:38:41;100806.25;;;26.12;96.69
33404;BME280;19751;40.274;18.268;2022-07-29T04:41:07;100797.09;;;26.17;96.38
33404;BME280;19751;40.274;18.268;2022-07-29T04:43:34;100797.34;;;26.20;96.01
33404;BME280;19751;40.274;18.268;2022-07-29T04:46:00;100797.56;;;26.24;95.90
33404;BME280;19751;40.274;18.268;2022-07-29T04:48:26;100799.44;;;26.28;95.63
33404;BME280;19751;40.274;18.268;2022-07-29T04:50:52;100797.75;;;26.33;95.53
33404;BME280;19751;40.274;18.268;2022-07-29T04:53:17;100802.41;;;26.37;95.51
33404;BME280;19751;40.274;18.268;2022-07-29T04:55:43;100799.88;;;26.41;95.49
33404;BME280;19751;40.274;18.268;2022-07-29T04:58:10;100806.75;;;26.43;95.09
33404;BME280;19751;40.274;18.268;2022-07-29T05:00:35;100808.13;;;26.46;95.01
33404;BME280;19751;40.274;18.268;2022-07-29T05:03:01;100809.19;;;26.50;94.88
33404;BME280;19751;40.274;18.268;2022-07-29T05:05:27;100803.91;;;26.53;94.55
33404;BME280;19751;40.274;18.268;2022-07-29T05:07:53;100804.66;;;26.59;94.64
33404;BME280;19751;40.274;18.268;2022-07-29T05:10:18;100801.84;;;26.64;94.42
33404;BME280;19751;40.274;18.268;2022-07-29T05:12:44;100812.53;;;26.71;93.79
33404;BME280;19751;40.274;18.268;2022-07-29T05:15:09;100809.72;;;26.76;93.79
33404;BME280;19751;40.274;18.268;2022-07-29T05:17:35;100817.38;;;26.79;93.39
33404;BME280;19751;40.274;18.268;2022-07-29T05:20:01;100812.63;;;26.85;92.61
33404;BME280;19751;40.274;18.268;2022-07-29T05:22:27;100813.69;;;26.89;92.03
33404;BME280;19751;40.274;18.268;2022-07-29T05:24:52;100819.13;;;26.94;91.99
33404;BME280;19751;40.274;18.268;2022-07-29T05:27:18;100808.22;;;27.02;91.41
33404;BME280;19751;40.274;18.268;2022-07-29T05:29:43;100815.63;;;27.07;90.85
33404;BME280;19751;40.274;18.268;2022-07-29T05:32:09;100816.44;;;27.08;90.63
33404;BME280;19751;40.274;18.268;2022-07-29T05:34:35;100817.53;;;27.12;89.96
33404;BME280;19751;40.274;18.268;2022-07-29T05:37:00;100823.00;;;27.17;89.27
33404;BME280;19751;40.274;18.268;2022-07-29T05:39:26;100818.53;;;27.21;88.71
33404;BME280;19751;40.274;18.268;2022-07-29T05:41:51;100820.66;;;27.24;88.42
33404;BME280;19751;40.274;18.268;2022-07-29T05:44:17;100818.94;;;27.28;87.76
33404;BME280;19751;40.274;18.268;2022-07-29T05:46:42;100821.13;;;27.31;86.72
33404;BME280;19751;40.274;18.268;2022-07-29T05:49:08;100824.13;;;27.35;85.98
33404;BME280;19751;40.274;18.268;2022-07-29T05:51:34;100843.38;;;27.40;84.38
33404;BME280;19751;40.274;18.268;2022-07-29T05:53:59;100835.31;;;27.43;82.89
33404;BME280;19751;40.274;18.268;2022-07-29T05:56:25;100833.28;;;27.49;80.92
33404;BME280;19751;40.274;18.268;2022-07-29T05:58:51;100839.88;;;27.53;78.14
33404;BME280;19751;40.274;18.268;2022-07-29T06:01:16;100839.28;;;27.56;75.90
33404;BME280;19751;40.274;18.268;2022-07-29T06:03:42;100843.91;;;27.61;74.73
33404;BME280;19751;40.274;18.268;2022-07-29T06:06:10;100838.28;;;27.66;74.03
33404;BME280;19751;40.274;18.268;2022-07-29T06:08:36;100840.16;;;27.70;73.28
33404;BME280;19751;40.274;18.268;2022-07-29T06:11:03;100846.13;;;27.78;72.27
33404;BME280;19751;40.274;18.268;2022-07-29T06:13:29;100849.34;;;27.85;71.28
33404;BME280;19751;40.274;18.268;2022-07-29T06:15:54;100854.78;;;27.90;70.36
33404;BME280;19751;40.274;18.268;2022-07-29T06:18:20;100852.25;;;27.93;68.52
33404;BME280;19751;40.274;18.268;2022-07-29T06:20:53;100844.66;;;27.99;67.87
33404;BME280;19751;40.274;18.268;2022-07-29T06:23:20;100852.28;;;28.07;66.69
33404;BME280;19751;40.274;18.268;2022-07-29T06:25:46;100845.00;;;28.11;65.86
33404;BME280;19751;40.274;18.268;2022-07-29T06:28:11;100849.94;;;28.14;65.08
33404;BME280;19751;40.274;18.268;2022-07-29T06:30:38;100849.63;;;28.16;64.39
33404;BME280;19751;40.274;18.268;2022-07-29T06:33:04;100843.78;;;28.17;63.30
33404;BME280;19751;40.274;18.268;2022-07-29T06:35:29;100850.38;;;28.21;62.55
33404;BME280;19751;40.274;18.268;2022-07-29T06:37:55;100845.84;;;28.25;61.30
33404;BME280;19751;40.274;18.268;2022-07-29T06:40:20;100848.31;;;28.27;60.05
33404;BME280;19751;40.274;18.268;2022-07-29T06:43:05;100851.31;;;28.31;59.39
33404;BME280;19751;40.274;18.268;2022-07-29T06:45:33;100851.22;;;28.36;59.32
33404;BME280;19751;40.274;18.268;2022-07-29T06:47:59;100858.34;;;28.42;58.53
33404;BME280;19751;40.274;18.268;2022-07-29T06:50:24;100858.22;;;28.47;57.40
33404;BME280;19751;40.274;18.268;2022-07-29T06:52:50;100870.66;;;28.49;56.64
33404;BME280;19751;40.274;18.268;2022-07-29T06:55:15;100865.28;;;28.53;56.79
33404;BME280;19751;40.274;18.268;2022-07-29T06:57:41;100870.22;;;28.56;56.42
33404;BME280;19751;40.274;18.268;2022-07-29T07:00:07;100883.97;;;28.61;56.19
33404;BME280;19751;40.274;18.268;2022-07-29T07:02:33;100877.22;;;28.67;55.92
33404;BME280;19751;40.274;18.268;2022-07-29T07:04:58;100874.66;;;28.71;55.32
33404;BME280;19751;40.274;18.268;2022-07-29T07:07:24;100870.97;;;28.76;54.36
33404;BME280;19751;40.274;18.268;2022-07-29T07:09:50;100870.63;;;28.77;53.90
33404;BME280;19751;40.274;18.268;2022-07-29T07:12:15;100873.63;;;28.81;53.88
33404;BME280;19751;40.274;18.268;2022-07-29T07:14:41;100878.56;;;28.84;53.86
33404;BME280;19751;40.274;18.268;2022-07-29T07:17:08;100880.72;;;28.87;54.25
33404;BME280;19751;40.274;18.268;2022-07-29T07:19:33;100880.41;;;28.88;54.28
33404;BME280;19751;40.274;18.268;2022-07-29T07:21:59;100889.75;;;28.92;54.42
33404;BME280;19751;40.274;18.268;2022-07-29T07:24:24;100881.91;;;28.94;53.67
33404;BME280;19751;40.274;18.268;2022-07-29T07:26:50;100880.53;;;28.97;53.78
33404;BME280;19751;40.274;18.268;2022-07-29T07:29:16;100878.28;;;28.99;54.12
33404;BME280;19751;40.274;18.268;2022-07-29T07:31:42;100883.19;;;29.02;55.21
33404;BME280;19751;40.274;18.268;2022-07-29T07:34:07;100886.78;;;29.03;54.73
33404;BME280;19751;40.274;18.268;2022-07-29T07:36:32;100886.16;;;29.06;54.59
33404;BME280;19751;40.274;18.268;2022-07-29T07:38:58;100883.91;;;29.08;54.29
33404;BME280;19751;40.274;18.268;2022-07-29T07:41:23;100889.13;;;29.09;54.69
33404;BME280;19751;40.274;18.268;2022-07-29T07:43:49;100887.38;;;29.13;54.18
33404;BME280;19751;40.274;18.268;2022-07-29T07:46:15;100886.44;;;29.18;54.38
33404;BME280;19751;40.274;18.268;2022-07-29T07:48:40;100892.53;;;29.20;54.72
33404;BME280;19751;40.274;18.268;2022-07-29T07:51:06;100893.53;;;29.24;55.06
33404;BME280;19751;40.274;18.268;2022-07-29T07:53:33;100898.16;;;29.29;54.84
33404;BME280;19751;40.274;18.268;2022-07-29T07:55:58;100890.53;;;29.34;55.13
33404;BME280;19751;40.274;18.268;2022-07-29T07:58:24;100904.59;;;29.38;55.58
33404;BME280;19751;40.274;18.268;2022-07-29T08:00:50;100892.03;;;29.40;56.34
33404;BME280;19751;40.274;18.268;2022-07-29T08:03:15;100898.22;;;29.37;57.29
33404;BME280;19751;40.274;18.268;2022-07-29T08:05:41;100897.91;;;29.39;57.56
33404;BME280;19751;40.274;18.268;2022-07-29T08:08:06;100899.53;;;29.40;57.51
33404;BME280;19751;40.274;18.268;2022-07-29T08:10:32;100893.19;;;29.39;57.57
33404;BME280;19751;40.274;18.268;2022-07-29T08:13:18;100889.59;;;29.39;56.64
33404;BME280;19751;40.274;18.268;2022-07-29T08:15:44;100890.41;;;29.39;56.93
33404;BME280;19751;40.274;18.268;2022-07-29T08:18:11;100896.16;;;29.43;57.92
33404;BME280;19751;40.274;18.268;2022-07-29T08:20:37;100900.56;;;29.44;58.17
33404;BME280;19751;40.274;18.268;2022-07-29T08:23:05;100901.91;;;29.46;58.09
33404;BME280;19751;40.274;18.268;2022-07-29T08:25:32;100899.13;;;29.46;58.79
33404;BME280;19751;40.274;18.268;2022-07-29T08:27:58;100900.47;;;29.49;58.77
33404;BME280;19751;40.274;18.268;2022-07-29T08:30:24;100897.38;;;29.51;58.94
33404;BME280;19751;40.274;18.268;2022-07-29T08:32:50;100902.59;;;29.52;58.41
33404;BME280;19751;40.274;18.268;2022-07-29T08:35:19;100906.72;;;29.55;57.58
33404;BME280;19751;40.274;18.268;2022-07-29T08:37:45;100901.69;;;29.57;56.91
33404;BME280;19751;40.274;18.268;2022-07-29T08:40:11;100898.00;;;29.61;56.87
33404;BME280;19751;40.274;18.268;2022-07-29T08:42:36;100900.44;;;29.63;56.94
33404;BME280;19751;40.274;18.268;2022-07-29T08:45:04;100906.19;;;29.66;56.91
33404;BME280;19751;40.274;18.268;2022-07-29T08:47:30;100901.47;;;29.67;57.61
33404;BME280;19751;40.274;18.268;2022-07-29T08:49:56;100909.47;;;29.68;57.67
33404;BME280;19751;40.274;18.268;2022-07-29T08:52:25;100910.28;;;29.69;56.50
33404;BME280;19751;40.274;18.268;2022-07-29T08:54:52;100909.66;;;29.72;55.85
33404;BME280;19751;40.274;18.268;2022-07-29T08:57:19;100901.84;;;29.74;54.58
33404;BME280;19751;40.274;18.268;2022-07-29T08:59:46;100909.53;;;29.77;54.22
33404;BME280;19751;40.274;18.268;2022-07-29T09:02:19;100898.94;;;29.79;52.36
33404;BME280;19751;40.274;18.268;2022-07-29T09:04:46;100898.31;;;29.82;51.42
33404;BME280;19751;40.274;18.268;2022-07-29T09:07:16;100905.06;;;29.90;51.66
33404;BME280;19751;40.274;18.268;2022-07-29T09:09:42;100901.50;;;29.98;51.67
33404;BME280;19751;40.274;18.268;2022-07-29T09:12:09;100899.44;;;30.04;50.26
33404;BME280;19751;40.274;18.268;2022-07-29T09:14:39;100901.91;;;30.05;49.78
33404;BME280;19751;40.274;18.268;2022-07-29T09:17:06;100912.38;;;30.08;49.09
33404;BME280;19751;40.274;18.268;2022-07-29T09:19:34;100909.47;;;30.13;48.98
33404;BME280;19751;40.274;18.268;2022-07-29T09:22:06;100898.91;;;30.15;49.40
33404;BME280;19751;40.274;18.268;2022-07-29T09:24:46;100897.75;;;30.16;49.73
33404;BME280;19751;40.274;18.268;2022-07-29T09:27:24;100897.97;;;30.20;50.48
33404;BME280;19751;40.274;18.268;2022-07-29T09:30:04;100902.84;;;30.23;50.63
33404;BME280;19751;40.274;18.268;2022-07-29T09:32:31;100901.06;;;30.27;51.13
33404;BME280;19751;40.274;18.268;2022-07-29T09:37:42;100911.25;;;30.32;51.25
33404;BME280;19751;40.274;18.268;2022-07-29T09:40:16;100914.84;;;30.32;52.05
33404;BME280;19751;40.274;18.268;2022-07-29T09:42:41;100910.13;;;30.33;52.34
33404;BME280;19751;40.274;18.268;2022-07-29T09:45:07;100903.94;;;30.36;52.25
33404;BME280;19751;40.274;18.268;2022-07-29T09:47:51;100910.31;;;30.36;51.40
33404;BME280;19751;40.274;18.268;2022-07-29T09:50:17;100905.56;;;30.37;49.01
33404;BME280;19751;40.274;18.268;2022-07-29T09:52:51;100904.41;;;30.38;50.14
33404;BME280;19751;40.274;18.268;2022-07-29T09:55:17;100908.34;;;30.37;51.34
33404;BME280;19751;40.274;18.268;2022-07-29T09:57:43;100903.94;;;30.36;48.11
33404;BME280;19751;40.274;18.268;2022-07-29T10:00:15;100896.56;;;30.40;48.73
33404;BME280;19751;40.274;18.268;2022-07-29T10:02:43;100892.97;;;30.39;50.00
33404;BME280;19751;40.274;18.268;2022-07-29T10:05:19;100899.53;;;30.43;51.09
33404;BME280;19751;40.274;18.268;2022-07-29T10:07:53;100894.50;;;30.45;50.42
33404;BME280;19751;40.274;18.268;2022-07-29T10:10:40;100891.09;;;30.49;48.25
33404;BME280;19751;40.274;18.268;2022-07-29T10:13:13;100887.16;;;30.50;48.86
33404;BME280;19751;40.274;18.268;2022-07-29T10:15:43;100897.31;;;30.54;48.71
33404;BME280;19751;40.274;18.268;2022-07-29T10:18:12;100892.75;;;30.58;47.30
33404;BME280;19751;40.274;18.268;2022-07-29T10:20:39;100888.53;;;30.61;47.12
33404;BME280;19751;40.274;18.268;2022-07-29T10:23:05;100898.66;;;30.65;46.12
33404;BME280;19751;40.274;18.268;2022-07-29T10:25:31;100888.38;;;30.66;45.83
33404;BME280;19751;40.274;18.268;2022-07-29T10:27:57;100884.63;;;30.70;46.02
33404;BME280;19751;40.274;18.268;2022-07-29T10:30:25;100894.09;;;30.69;45.46
33404;BME280;19751;40.274;18.268;2022-07-29T10:36:18;100880.09;;;30.75;45.55
33404;BME280;19751;40.274;18.268;2022-07-29T10:39:30;100876.19;;;30.84;44.88
33404;BME280;19751;40.274;18.268;2022-07-29T10:44:41;100869.53;;;30.94;43.75
33404;BME280;19751;40.274;18.268;2022-07-29T10:47:08;100873.44;;;31.02;43.23
33404;BME280;19751;40.274;18.268;2022-07-29T10:49:34;100872.81;;;31.05;43.62
33404;BME280;19751;40.274;18.268;2022-07-29T10:52:08;100868.56;;;31.07;43.53
33404;BME280;19751;40.274;18.268;2022-07-29T10:59:39;100872.50;;;31.15;43.13
33404;BME280;19751;40.274;18.268;2022-07-29T11:04:58;100863.19;;;31.19;42.07
33404;BME280;19751;40.274;18.268;2022-07-29T11:07:27;100856.47;;;31.20;41.77
33404;BME280;19751;40.274;18.268;2022-07-29T11:20:47;100858.13;;;31.48;41.45
33404;BME280;19751;40.274;18.268;2022-07-29T11:23:30;100837.81;;;31.56;39.85
33404;BME280;19751;40.274;18.268;2022-07-29T11:26:16;100839.66;;;31.60;40.16
33404;BME280;19751;40.274;18.268;2022-07-29T11:29:13;100829.16;;;31.66;40.07
33404;BME280;19751;40.274;18.268;2022-07-29T11:31:42;100835.03;;;31.73;39.37
33404;BME280;19751;40.274;18.268;2022-07-29T11:39:44;100822.41;;;31.84;39.99
33404;BME280;19751;40.274;18.268;2022-07-29T11:45:21;100823.72;;;31.96;40.21
33404;BME280;19751;40.274;18.268;2022-07-29T11:50:26;100828.63;;;31.99;41.94
33404;BME280;19751;40.274;18.268;2022-07-29T11:52:52;100831.22;;;32.04;42.28
33404;BME280;19751;40.274;18.268;2022-07-29T11:55:20;100830.72;;;32.10;41.90
33404;BME280;19751;40.274;18.268;2022-07-29T11:57:53;100825.63;;;32.12;42.20
33404;BME280;19751;40.274;18.268;2022-07-29T12:02:53;100833.53;;;32.10;43.30
33404;BME280;19751;40.274;18.268;2022-07-29T12:05:19;100837.44;;;32.09;43.26
33404;BME280;19751;40.274;18.268;2022-07-29T12:07:47;100834.66;;;32.09;43.24
33404;BME280;19751;40.274;18.268;2022-07-29T12:10:14;100839.56;;;32.12;43.88
33404;BME280;19751;40.274;18.268;2022-07-29T12:12:39;100846.44;;;32.15;43.98
33404;BME280;19751;40.274;18.268;2022-07-29T12:15:13;100828.06;;;32.14;44.21
33404;BME280;19751;40.274;18.268;2022-07-29T12:17:38;100833.34;;;32.15;44.33
33404;BME280;19751;40.274;18.268;2022-07-29T12:20:04;100841.50;;;32.21;43.85
33404;BME280;19751;40.274;18.268;2022-07-29T12:22:35;100837.06;;;32.28;43.49
33404;BME280;19751;40.274;18.268;2022-07-29T12:25:06;100833.72;;;32.35;43.31
33404;BME280;19751;40.274;18.268;2022-07-29T12:27:32;100840.63;;;32.37;43.08
33404;BME280;19751;40.274;18.268;2022-07-29T12:30:06;100840.00;;;32.40;43.11
33404;BME280;19751;40.274;18.268;2022-07-29T12:32:36;100846.19;;;32.46;43.14
33404;BME280;19751;40.274;18.268;2022-07-29T12:35:07;100845.19;;;32.51;42.60
33404;BME280;19751;40.274;18.268;2022-07-29T12:37:34;100838.94;;;32.54;42.19
33404;BME280;19751;40.274;18.268;2022-07-29T12:40:03;100839.91;;;32.58;42.22
33404;BME280;19751;40.274;18.268;2022-07-29T12:42:29;100840.41;;;32.60;42.34
33404;BME280;19751;40.274;18.268;2022-07-29T12:44:55;100831.88;;;32.56;42.60
33404;BME280;19751;40.274;18.268;2022-07-29T12:47:21;100842.34;;;32.59;42.04
33404;BME280;19751;40.274;18.268;2022-07-29T12:49:48;100842.19;;;32.64;42.24
33404;BME280;19751;40.274;18.268;2022-07-29T12:52:31;100839.50;;;32.68;42.01
33404;BME280;19751;40.274;18.268;2022-07-29T12:54:58;100826.09;;;32.91;41.32
33404;BME280;19751;40.274;18.268;2022-07-29T12:57:24;100834.59;;;33.24;40.69
33404;BME280;19751;40.274;18.268;2022-07-29T13:00:09;100815.13;;;33.57;40.00
33404;BME280;19751;40.274;18.268;2022-07-29T13:02:39;100823.63;;;33.94;39.18
33404;BME280;19751;40.274;18.268;2022-07-29T13:05:06;100836.16;;;34.21;38.69
33404;BME280;19751;40.274;18.268;2022-07-29T13:07:34;100821.84;;;34.35;37.16
33404;BME280;19751;40.274;18.268;2022-07-29T13:10:18;100822.91;;;34.43;36.66
33404;BME280;19751;40.274;18.268;2022-07-29T13:13:10;100817.00;;;34.56;36.66
33404;BME280;19751;40.274;18.268;2022-07-29T13:15:38;100819.78;;;34.69;36.47
33404;BME280;19751;40.274;18.268;2022-07-29T13:18:05;100816.03;;;34.77;35.82
33404;BME280;19751;40.274;18.268;2022-07-29T13:20:31;100817.19;;;34.88;35.81
33404;BME280;19751;40.274;18.268;2022-07-29T13:22:58;100813.13;;;34.98;35.53
33404;BME280;19751;40.274;18.268;2022-07-29T13:25:30;100814.84;;;35.02;35.34
33404;BME280;19751;40.274;18.268;2022-07-29T13:27:57;100817.41;;;35.07;35.89
33404;BME280;19751;40.274;18.268;2022-07-29T13:30:23;100810.84;;;35.16;35.46
33404;BME280;19751;40.274;18.268;2022-07-29T13:32:50;100809.19;;;35.27;35.04
33404;BME280;19751;40.274;18.268;2022-07-29T13:35:16;100808.34;;;35.39;34.38
33404;BME280;19751;40.274;18.268;2022-07-29T13:37:42;100819.88;;;35.49;33.42
33404;BME280;19751;40.274;18.268;2022-07-29T13:40:08;100808.88;;;35.56;33.21
33404;BME280;19751;40.274;18.268;2022-07-29T13:42:34;100807.13;;;35.52;32.99